Time;durP1;ratioP1;P1;durP2;ratioP2;P2;SDS_P1;SDS_P2;PMS_P1;PMS_P2;Temp;Humidity;BMP_temperature;BMP_pressure;BME280_temperature;BME280_humidity;BME280_pressure;Samples;Min_cycle;Max_cycle;Signal;HPM_P1;HPM_P2
2023/06/29 00:01:55;;;;;;;13.10;10.15;;;;;;;-148.88;100.00;-17125.47;4998035;28;20024;-73
2023/06/29 00:04:21;;;;;;;14.93;10.60;;;;;;;-148.88;100.00;-17125.47;5015483;28;20022;-73
2023/06/29 00:06:47;;;;;;;17.42;10.82;;;;;;;-148.88;100.00;-17125.47;5015444;28;20029;-73
2023/06/29 00:09:12;;;;;;;14.20;11.05;;;;;;;-148.88;100.00;-17125.47;5015691;28;20036;-73
2023/06/29 00:11:37;;;;;;;14.98;11.38;;;;;;;-148.88;100.00;-17125.47;5015443;28;20044;-73
2023/06/29 00:14:02;;;;;;;15.95;11.18;;;;;;;-148.88;100.00;-17125.47;5014924;28;20038;-73
2023/06/29 00:16:30;;;;;;;16.88;11.82;;;;;;;-148.88;100.00;-17125.47;5015572;28;20057;-73
2023/06/29 00:18:55;;;;;;;16.58;11.90;;;;;;;-148.88;100.00;-17125.47;4997523;28;20026;-73
2023/06/29 00:21:21;;;;;;;19.23;12.13;;;;;;;-148.88;100.00;-17125.47;4997724;28;20026;-73
2023/06/29 00:23:46;;;;;;;16.80;11.70;;;;;;;-148.88;100.00;-17125.47;5015135;28;20018;-74
2023/06/29 00:26:13;;;;;;;17.80;12.45;;;;;;;-148.88;100.00;-17125.47;5015188;28;20060;-74
2023/06/29 00:28:38;;;;;;;17.27;11.85;;;;;;;-148.88;100.00;-17125.47;5015262;28;20022;-74
2023/06/29 00:31:04;;;;;;;21.45;12.65;;;;;;;-148.88;100.00;-17125.47;5015051;28;20432;-74
2023/06/29 00:33:29;;;;;;;19.17;12.77;;;;;;;-148.88;100.00;-17125.47;5015305;28;20029;-73
2023/06/29 00:35:55;;;;;;;20.10;12.18;;;;;;;-148.88;100.00;-17125.47;4997243;28;20144;-74
2023/06/29 00:38:20;;;;;;;18.50;13.38;;;;;;;-148.88;100.00;-17125.47;4997696;28;20053;-74
2023/06/29 00:40:48;;;;;;;17.00;12.73;;;;;;;-148.88;100.00;-17125.47;5015153;28;20044;-73
2023/06/29 00:43:13;;;;;;;16.90;12.35;;;;;;;-148.88;100.00;-17125.47;5015162;28;20029;-73
2023/06/29 00:45:39;;;;;;;16.98;12.45;;;;;;;-148.88;100.00;-17125.47;4997282;28;20028;-73
2023/06/29 00:48:05;;;;;;;20.48;12.90;;;;;;;-148.88;100.00;-17125.47;5014803;28;20021;-72
2023/06/29 00:50:31;;;;;;;17.05;12.40;;;;;;;-148.88;100.00;-17125.47;5015171;28;20427;-72
2023/06/29 00:52:56;;;;;;;19.63;12.75;;;;;;;-148.88;100.00;-17125.47;4997319;28;20038;-72
2023/06/29 00:55:22;;;;;;;20.30;13.52;;;;;;;-148.88;100.00;-17125.47;5014796;28;20026;-73
2023/06/29 00:57:47;;;;;;;17.90;12.80;;;;;;;-148.88;100.00;-17125.47;4997678;28;20418;-73
2023/06/29 01:00:13;;;;;;;20.02;13.23;;;;;;;-148.88;100.00;-17125.47;5015111;28;20038;-73
2023/06/29 01:02:41;;;;;;;17.40;12.60;;;;;;;-148.88;100.00;-17125.47;4998484;28;20029;-73
2023/06/29 01:05:09;;;;;;;16.98;12.02;;;;;;;-148.88;100.00;-17125.47;5016515;28;20026;-73
2023/06/29 01:07:41;;;;;;;15.32;11.93;;;;;;;-148.88;100.00;-17125.47;5015431;28;20484;-73
2023/06/29 01:10:10;;;;;;;15.68;11.88;;;;;;;-148.88;100.00;-17125.47;5015046;28;20109;-73
2023/06/29 01:12:38;;;;;;;15.73;11.68;;;;;;;-148.88;100.00;-17125.47;5014574;28;20073;-73
2023/06/29 01:15:07;;;;;;;19.23;13.25;;;;;;;-148.88;100.00;-17125.47;4996957;28;20083;-71
2023/06/29 01:17:38;;;;;;;21.65;13.73;;;;;;;-148.88;100.00;-17125.47;5014615;28;20477;-73
2023/06/29 01:20:10;;;;;;;19.45;13.18;;;;;;;-148.88;100.00;-17125.47;5014603;28;20442;-72
2023/06/29 01:22:41;;;;;;;17.77;12.20;;;;;;;-148.88;100.00;-17125.47;5015040;28;20365;-73
2023/06/29 01:25:07;;;;;;;19.20;11.90;;;;;;;-148.88;100.00;-17125.47;4996388;28;20480;-73
2023/06/29 01:27:33;;;;;;;18.63;12.65;;;;;;;-148.88;100.00;-17125.47;4997044;28;20045;-73
2023/06/29 01:30:00;;;;;;;17.13;13.07;;;;;;;-148.88;100.00;-17125.47;4997225;28;20084;-73
2023/06/29 01:32:31;;;;;;;15.23;12.77;;;;;;;-148.88;100.00;-17125.47;4997344;28;20086;-73
2023/06/29 01:34:57;;;;;;;16.25;12.82;;;;;;;-148.88;100.00;-17125.47;4997323;28;20033;-72
2023/06/29 01:37:28;;;;;;;18.85;13.38;;;;;;;-148.88;100.00;-17125.47;5014538;28;20435;-73
2023/06/29 01:40:00;;;;;;;19.52;13.65;;;;;;;-148.88;100.00;-17125.47;5014325;28;20037;-73
2023/06/29 01:42:26;;;;;;;20.20;13.30;;;;;;;-148.88;100.00;-17125.47;5014432;28;20018;-73
2023/06/29 01:44:54;;;;;;;20.17;12.95;;;;;;;-148.88;100.00;-17125.47;5013750;28;20033;-73
2023/06/29 01:47:21;;;;;;;15.75;12.55;;;;;;;-148.88;100.00;-17125.47;5013665;28;20076;-72
2023/06/29 01:49:48;;;;;;;20.25;12.93;;;;;;;-148.88;100.00;-17125.47;4996261;28;20468;-72
2023/06/29 01:52:13;;;;;;;18.80;13.38;;;;;;;-148.88;100.00;-17125.47;5013275;28;20362;-71
2023/06/29 01:54:38;;;;;;;17.25;12.65;;;;;;;-148.88;100.00;-17125.47;4995711;28;20030;-72
2023/06/29 01:57:05;;;;;;;21.67;13.20;;;;;;;-148.88;100.00;-17125.47;5013988;28;20361;-72
2023/06/29 01:59:30;;;;;;;18.33;13.35;;;;;;;-148.88;100.00;-17125.47;5013710;28;20030;-72
2023/06/29 02:01:56;;;;;;;16.55;13.23;;;;;;;-148.88;100.00;-17125.47;5013371;28;20435;-71
2023/06/29 02:04:21;;;;;;;18.92;13.60;;;;;;;-148.88;100.00;-17125.47;5013095;28;20049;-72
2023/06/29 02:06:47;;;;;;;18.30;13.32;;;;;;;-148.88;100.00;-17125.47;5013374;28;20022;-72
2023/06/29 02:09:13;;;;;;;18.35;14.77;;;;;;;-148.88;100.00;-17125.47;4995836;28;20105;-71
2023/06/29 02:11:38;;;;;;;19.38;14.45;;;;;;;-148.88;100.00;-17125.47;5012967;28;20030;-72
2023/06/29 02:14:04;;;;;;;20.40;13.82;;;;;;;-148.88;100.00;-17125.47;5013052;28;20029;-72
2023/06/29 02:16:29;;;;;;;16.23;13.10;;;;;;;-148.88;100.00;-17125.47;4995358;28;20033;-72
2023/06/29 02:18:54;;;;;;;18.13;13.82;;;;;;;-148.88;100.00;-17125.47;4996471;28;20061;-71
2023/06/29 02:21:20;;;;;;;19.70;13.65;;;;;;;-148.88;100.00;-17125.47;4995446;28;20430;-72
2023/06/29 02:23:45;;;;;;;19.40;12.88;;;;;;;-148.88;100.00;-17125.47;5013053;28;20518;-72
2023/06/29 02:26:11;;;;;;;21.05;14.05;;;;;;;-148.88;100.00;-17125.47;5012951;28;20026;-72
2023/06/29 02:28:37;;;;;;;19.42;13.40;;;;;;;-148.88;100.00;-17125.47;5012969;28;20030;-71
2023/06/29 02:31:02;;;;;;;16.83;12.45;;;;;;;-148.88;100.00;-17125.47;5012853;28;20022;-72
2023/06/29 02:33:28;;;;;;;18.52;13.15;;;;;;;-148.88;100.00;-17125.47;5012850;28;20049;-71
2023/06/29 02:35:53;;;;;;;20.50;12.90;;;;;;;-148.88;100.00;-17125.47;5014646;28;20087;-71
2023/06/29 02:38:19;;;;;;;20.85;14.70;;;;;;;-148.88;100.00;-17125.47;5016917;28;20495;-71
2023/06/29 02:40:44;;;;;;;16.58;13.75;;;;;;;-148.88;100.00;-17125.47;5016931;28;20108;-72
2023/06/29 02:43:10;;;;;;;17.73;13.40;;;;;;;-148.88;100.00;-17125.47;5016792;28;20025;-72
2023/06/29 02:45:35;;;;;;;19.23;14.75;;;;;;;-148.88;100.00;-17125.47;5016867;28;20022;-71
2023/06/29 02:48:01;;;;;;;19.27;14.48;;;;;;;-148.88;100.00;-17125.47;5016949;28;20096;-72
2023/06/29 02:50:26;;;;;;;17.65;14.68;;;;;;;-148.88;100.00;-17125.47;5016880;28;20426;-72
2023/06/29 02:52:52;;;;;;;21.15;15.40;;;;;;;-148.88;100.00;-17125.47;5016849;28;20030;-72
2023/06/29 02:55:21;;;;;;;24.05;16.23;;;;;;;-148.88;100.00;-17125.47;5087566;22;20120;-86
2023/06/29 02:57:59;;;;;;;21.13;15.95;;;;;;;-148.88;100.00;-17125.47;5018645;28;20115;-85
2023/06/29 03:00:25;;;;;;;26.33;17.15;;;;;;;-148.88;100.00;-17125.47;5018382;28;20136;-85
2023/06/29 03:02:53;;;;;;;20.83;16.63;;;;;;;-148.88;100.00;-17125.47;5018305;28;20079;-86
2023/06/29 03:05:31;;;;;;;22.10;17.27;;;;;;;-148.88;100.00;-17125.47;5015220;28;20029;-86
2023/06/29 03:08:15;;;;;;;21.58;16.42;;;;;;;-148.88;100.00;-17125.47;5014531;28;20408;-86
2023/06/29 03:10:44;;;;;;;22.63;17.77;;;;;;;-148.88;100.00;-17125.47;5018316;28;20037;-85
2023/06/29 03:13:09;;;;;;;25.88;17.90;;;;;;;-148.88;100.00;-17125.47;5018452;28;20041;-86
2023/06/29 03:15:35;;;;;;;21.67;18.45;;;;;;;-148.88;100.00;-17125.47;5018070;28;20030;-85
2023/06/29 03:18:00;;;;;;;22.13;16.85;;;;;;;-148.88;100.00;-17125.47;5018159;28;20021;-86
2023/06/29 03:20:32;;;;;;;25.20;18.45;;;;;;;-148.88;100.00;-17125.47;5018268;28;20468;-86
2023/06/29 03:23:01;;;;;;;21.70;17.02;;;;;;;-148.88;100.00;-17125.47;5018566;28;20112;-86
2023/06/29 03:25:32;;;;;;;27.05;18.75;;;;;;;-148.88;100.00;-17125.47;5018708;28;20423;-85
2023/06/29 03:28:06;;;;;;;29.13;18.48;;;;;;;-148.88;100.00;-17125.47;5017548;28;20201;-86
2023/06/29 03:30:37;;;;;;;26.42;18.27;;;;;;;-148.88;100.00;-17125.47;5019234;28;20468;-85
2023/06/29 03:33:09;;;;;;;28.23;18.88;;;;;;;-148.88;100.00;-17125.47;5018856;28;20029;-87
2023/06/29 03:36:11;;;;;;;24.67;18.33;;;;;;;-148.88;100.00;-17125.47;5019106;28;20021;-85
2023/06/29 03:38:36;;;;;;;26.60;18.45;;;;;;;-148.88;100.00;-17125.47;5015254;28;20038;-82
2023/06/29 03:41:08;;;;;;;24.50;18.75;;;;;;;-148.88;100.00;-17125.47;5018339;28;20017;-84
2023/06/29 03:43:44;;;;;;;;;;;;;;;;;;;;;
2023/06/29 03:46:14;;;;;;;24.63;18.33;;;;;;;-148.88;100.00;-17125.47;5037824;28;20025;-83
2023/06/29 03:48:39;;;;;;;26.83;18.52;;;;;;;-148.88;100.00;-17125.47;5018355;28;20483;-83
2023/06/29 03:51:05;;;;;;;25.42;18.23;;;;;;;-148.88;100.00;-17125.47;5036177;28;20051;-86
2023/06/29 03:53:30;;;;;;;26.83;18.08;;;;;;;-148.88;100.00;-17125.47;5019416;28;20380;-83
2023/06/29 03:55:56;;;;;;;25.63;17.90;;;;;;;-148.88;100.00;-17125.47;5018843;28;20387;-85
2023/06/29 03:58:22;;;;;;;27.35;17.33;;;;;;;-148.88;100.00;-17125.47;5018729;28;20025;-84
2023/06/29 04:00:47;;;;;;;24.40;17.98;;;;;;;-148.88;100.00;-17125.47;5036494;28;20021;-83
2023/06/29 04:03:12;;;;;;;25.10;18.23;;;;;;;-148.88;100.00;-17125.47;5018513;28;20079;-85
2023/06/29 04:05:38;;;;;;;26.38;17.65;;;;;;;-148.88;100.00;-17125.47;5020292;28;20147;-85
2023/06/29 04:08:05;;;;;;;25.95;17.70;;;;;;;-148.88;100.00;-17125.47;5020142;28;20392;-82
2023/06/29 04:10:34;;;;;;;22.02;16.38;;;;;;;-148.88;100.00;-17125.47;5020152;28;20025;-85
2023/06/29 04:13:00;;;;;;;24.92;16.77;;;;;;;-148.88;100.00;-17125.47;5019169;28;20029;-86
2023/06/29 04:15:26;;;;;;;23.02;16.95;;;;;;;-148.88;100.00;-17125.47;5035952;28;20037;-85
2023/06/29 04:17:58;;;;;;;25.38;16.48;;;;;;;-148.88;100.00;-17125.47;5019055;28;20025;-86
2023/06/29 04:20:28;;;;;;;23.50;15.98;;;;;;;-148.88;100.00;-17125.47;5035980;28;20030;-86
2023/06/29 04:22:58;;;;;;;20.15;14.93;;;;;;;-148.88;100.00;-17125.47;5017953;28;20395;-86
2023/06/29 04:25:28;;;;;;;21.23;15.38;;;;;;;-148.88;100.00;-17125.47;5018037;28;20384;-84
2023/06/29 04:28:12;;;;;;;20.73;15.35;;;;;;;-148.88;100.00;-17125.47;5035643;28;20427;-84
2023/06/29 04:30:45;;;;;;;19.85;14.82;;;;;;;-148.88;100.00;-17125.47;5035820;28;20025;-84
2023/06/29 04:33:29;;;;;;;22.30;15.27;;;;;;;-148.88;100.00;-17125.47;5018189;28;20034;-83
2023/06/29 04:35:57;;;;;;;20.70;15.23;;;;;;;-148.88;100.00;-17125.47;5019121;28;20026;-83
2023/06/29 04:38:30;;;;;;;18.98;14.48;;;;;;;-148.88;100.00;-17125.47;5019474;28;20041;-84
2023/06/29 04:41:07;;;;;;;20.95;15.48;;;;;;;-148.88;100.00;-17125.47;5020525;28;20045;-85
2023/06/29 04:43:47;;;;;;;21.38;15.13;;;;;;;-148.88;100.00;-17125.47;5038453;28;20086;-86
2023/06/29 04:46:16;;;;;;;18.10;13.63;;;;;;;-148.88;100.00;-17125.47;5020484;28;20524;-86
2023/06/29 04:48:47;;;;;;;20.50;14.40;;;;;;;-148.88;100.00;-17125.47;5018874;28;20060;-85
2023/06/29 04:51:20;;;;;;;21.70;14.32;;;;;;;-148.88;100.00;-17125.47;5020233;28;20028;-85
2023/06/29 04:53:48;;;;;;;19.63;14.27;;;;;;;-148.88;100.00;-17125.47;5017262;28;20034;-84
2023/06/29 04:56:20;;;;;;;20.85;15.00;;;;;;;-148.88;100.00;-17125.47;5017234;28;20030;-84
2023/06/29 04:58:45;;;;;;;19.35;14.05;;;;;;;-148.88;100.00;-17125.47;5034870;28;20400;-86
2023/06/29 05:01:21;;;;;;;19.25;14.20;;;;;;;-148.88;100.00;-17125.47;5017748;28;20028;-85
2023/06/29 05:03:47;;;;;;;18.48;13.77;;;;;;;-148.88;100.00;-17125.47;5034840;28;20100;-85
2023/06/29 05:06:12;;;;;;;25.23;14.93;;;;;;;-148.88;100.00;-17125.47;5017264;28;20056;-85
2023/06/29 05:08:38;;;;;;;18.63;13.93;;;;;;;-148.88;100.00;-17125.47;5034473;28;20508;-84
2023/06/29 05:11:11;;;;;;;19.08;14.25;;;;;;;-148.88;100.00;-17125.47;5016544;28;20029;-84
2023/06/29 05:13:36;;;;;;;20.27;14.05;;;;;;;-148.88;100.00;-17125.47;5016888;28;20032;-84
2023/06/29 05:16:03;;;;;;;18.50;14.45;;;;;;;-148.88;100.00;-17125.47;5034538;28;20033;-85
2023/06/29 05:18:32;;;;;;;22.67;14.80;;;;;;;-148.88;100.00;-17125.47;5017252;28;20025;-85
2023/06/29 05:21:22;;;;;;;20.02;14.20;;;;;;;-148.88;100.00;-17125.47;5017815;28;20434;-85
2023/06/29 05:23:53;;;;;;;21.73;14.88;;;;;;;-148.88;100.00;-17125.47;5001031;28;20452;-84
2023/06/29 05:26:25;;;;;;;19.75;14.30;;;;;;;-148.88;100.00;-17125.47;5014850;28;20044;-87
2023/06/29 05:29:05;;;;;;;17.67;14.25;;;;;;;-148.88;100.00;-17125.47;5036262;28;20033;-85
2023/06/29 05:31:53;;;;;;;23.02;14.65;;;;;;;-148.88;100.00;-17125.47;5017468;28;20018;-85
2023/06/29 05:35:34;;;;;;;;;;;;;;;;;;;;;
2023/06/29 05:38:29;;;;;;;;;;;;;;;;;;;;;
2023/06/29 05:41:24;;;;;;;20.40;13.20;;;;;;;-148.88;100.00;-17125.47;5033861;28;20048;-86
2023/06/29 05:47:05;;;;;;;22.17;13.55;;;;;;;-148.88;100.00;-17125.47;5033998;28;20638;-86
2023/06/29 05:49:31;;;;;;;18.88;13.15;;;;;;;-148.88;100.00;-17125.47;5016203;28;20113;-86
2023/06/29 05:52:47;;;;;;;;;;;;;;;;;;;;;
2023/06/29 05:56:05;;;;;;;16.13;13.00;;;;;;;-148.88;100.00;-17125.47;4930867;28;20056;-86
2023/06/29 05:59:06;;;;;;;;;;;;;;;;;;;;;
2023/06/29 06:02:17;;;;;;;15.80;11.55;;;;;;;-148.88;100.00;-17125.47;4973341;28;20069;-87
2023/06/29 06:05:08;;;;;;;15.80;11.68;;;;;;;-148.88;100.00;-17125.47;5012949;28;20059;-85
2023/06/29 06:08:25;;;;;;;;;;;;;;;;;;;;;
2023/06/29 06:17:42;;;;;;;;;;;;;;;-148.88;100.00;-17125.47;4899296;29;20033;-86
2023/06/29 06:20:48;;;;;;;19.60;11.60;;;;;;;-148.88;100.00;-17125.47;4899767;29;19911;-87
2023/06/29 06:25:44;;;;;;;14.30;11.13;;;;;;;-148.88;100.00;-17125.47;5040486;22;20132;-76
2023/06/29 06:28:09;;;;;;;15.35;11.30;;;;;;;-148.88;100.00;-17125.47;5032975;28;20436;-75
2023/06/29 06:30:35;;;;;;;15.90;11.48;;;;;;;-148.88;100.00;-17125.47;5032901;28;20045;-76
2023/06/29 06:33:01;;;;;;;15.18;11.23;;;;;;;-148.88;100.00;-17125.47;5032932;28;20033;-76
2023/06/29 06:35:28;;;;;;;16.33;10.90;;;;;;;-148.88;100.00;-17125.47;5015277;28;20029;-77
2023/06/29 06:37:54;;;;;;;17.42;10.85;;;;;;;-148.88;100.00;-17125.47;5032910;28;20028;-76
2023/06/29 06:40:19;;;;;;;16.15;10.20;;;;;;;-148.88;100.00;-17125.47;5032923;28;20021;-75
2023/06/29 06:42:45;;;;;;;16.23;10.45;;;;;;;-148.88;100.00;-17125.47;5033183;28;20028;-76
2023/06/29 06:45:10;;;;;;;17.05;10.48;;;;;;;-148.88;100.00;-17125.47;5015120;28;20482;-75
2023/06/29 06:47:36;;;;;;;13.90;9.82;;;;;;;-148.88;100.00;-17125.47;5032838;28;20383;-75
2023/06/29 06:50:02;;;;;;;17.45;10.60;;;;;;;-148.88;100.00;-17125.47;5032993;28;20479;-75
2023/06/29 06:52:28;;;;;;;14.63;9.23;;;;;;;-148.88;100.00;-17125.47;5033133;28;20025;-75
2023/06/29 06:54:56;;;;;;;13.02;9.63;;;;;;;-148.88;100.00;-17125.47;5015285;28;20033;-75
2023/06/29 06:57:22;;;;;;;14.93;9.32;;;;;;;-148.88;100.00;-17125.47;5032883;28;20060;-75
2023/06/29 06:59:48;;;;;;;11.48;9.00;;;;;;;-148.88;100.00;-17125.47;5015083;28;20053;-76
2023/06/29 07:02:14;;;;;;;13.50;9.18;;;;;;;-148.88;100.00;-17125.47;5032931;28;20056;-76
2023/06/29 07:04:39;;;;;;;17.23;9.15;;;;;;;-148.88;100.00;-17125.47;5014896;28;20128;-76
2023/06/29 07:07:06;;;;;;;16.00;9.13;;;;;;;-148.88;100.00;-17125.47;5014988;28;20034;-76
2023/06/29 07:09:32;;;;;;;13.82;8.77;;;;;;;-148.88;100.00;-17125.47;5032733;28;20494;-76
2023/06/29 07:11:58;;;;;;;11.40;7.63;;;;;;;-148.88;100.00;-17125.47;5032745;28;20068;-76
2023/06/29 07:14:24;;;;;;;14.25;8.02;;;;;;;-148.88;100.00;-17125.47;5014779;28;20033;-76
2023/06/29 07:16:49;;;;;;;11.55;7.60;;;;;;;-148.88;100.00;-17125.47;5014908;28;20029;-76
2023/06/29 07:19:15;;;;;;;14.32;8.80;;;;;;;-148.88;100.00;-17125.47;5015059;28;20040;-76
2023/06/29 07:21:42;;;;;;;15.65;8.13;;;;;;;-148.88;100.00;-17125.47;5014931;28;20017;-75
2023/06/29 07:24:08;;;;;;;11.63;6.43;;;;;;;-148.88;100.00;-17125.47;5035975;28;20030;-75
2023/06/29 07:26:34;;;;;;;11.95;7.35;;;;;;;-148.88;99.04;-17125.47;5036215;28;20052;-75
2023/06/29 07:29:00;;;;;;;9.13;6.35;;;;;;;-148.88;99.70;-17125.47;5036093;28;20049;-75
2023/06/29 07:31:27;;;;;;;12.10;7.47;;;;;;;-148.88;99.67;-17125.47;5036059;28;20026;-75
2023/06/29 07:33:53;;;;;;;14.32;7.13;;;;;;;-148.88;99.33;-17125.47;5036200;28;20491;-75
2023/06/29 07:36:22;;;;;;;12.98;6.95;;;;;;;-148.88;100.00;-17125.47;5035966;28;20025;-75
2023/06/29 07:38:48;;;;;;;11.35;6.65;;;;;;;-148.88;100.00;-17125.47;5036003;28;20025;-76
2023/06/29 07:41:15;;;;;;;11.02;7.43;;;;;;;-148.88;100.00;-17125.47;5018029;28;20023;-76
2023/06/29 07:43:42;;;;;;;10.35;7.13;;;;;;;-148.88;100.00;-17125.47;5018204;28;20029;-76
2023/06/29 07:46:07;;;;;;;12.85;7.85;;;;;;;-148.88;100.00;-17125.47;5035779;28;20037;-76
2023/06/29 07:48:33;;;;;;;17.92;7.20;;;;;;;-148.88;100.00;-17125.47;5017955;28;20159;-76
2023/06/29 07:50:58;;;;;;;13.00;7.03;;;;;;;-148.88;100.00;-17125.47;5017812;28;20025;-76
2023/06/29 07:53:24;;;;;;;11.15;6.60;;;;;;;-148.88;98.19;-17125.47;5017961;28;20060;-76
2023/06/29 07:55:50;;;;;;;11.35;6.55;;;;;;;-148.88;96.74;-17125.47;5017783;28;20030;-76
2023/06/29 07:58:16;;;;;;;11.02;7.20;;;;;;;-148.88;94.63;-17125.47;5035497;28;20475;-76
2023/06/29 08:00:41;;;;;;;10.70;6.70;;;;;;;-148.88;93.62;-17125.47;5017935;28;20390;-75
2023/06/29 08:03:07;;;;;;;12.85;7.38;;;;;;;-148.88;92.75;-17125.47;5017737;28;20487;-75
2023/06/29 08:05:32;;;;;;;18.35;7.45;;;;;;;-148.88;93.67;-17125.47;5035288;28;20017;-75
2023/06/29 08:07:58;;;;;;;10.23;6.45;;;;;;;-148.88;93.99;-17125.47;5017690;28;20052;-75
2023/06/29 08:10:23;;;;;;;11.00;6.32;;;;;;;-148.88;95.27;-17125.47;5035283;28;20022;-75
2023/06/29 08:12:49;;;;;;;13.30;6.65;;;;;;;-148.88;93.60;-17125.47;5035127;28;20021;-76
2023/06/29 08:15:15;;;;;;;10.70;7.00;;;;;;;-148.88;93.32;-17125.47;5035085;28;20540;-75
2023/06/29 08:17:41;;;;;;;11.45;7.30;;;;;;;-148.88;93.21;-17125.47;5035182;28;20033;-76
2023/06/29 08:20:10;;;;;;;10.00;6.25;;;;;;;-148.88;95.57;-17125.47;5035090;28;20079;-76
2023/06/29 08:22:36;;;;;;;11.18;6.65;;;;;;;-148.88;96.04;-17125.47;5035010;28;20025;-76
2023/06/29 08:25:01;;;;;;;12.32;6.93;;;;;;;-148.88;93.26;-17125.47;5017070;28;20021;-76
2023/06/29 08:27:26;;;;;;;10.23;6.68;;;;;;;-148.88;92.42;-17125.47;5034984;28;20026;-76
2023/06/29 08:29:52;;;;;;;14.05;6.95;;;;;;;-148.88;89.04;-17125.47;5034818;28;20490;-76
2023/06/29 08:32:18;;;;;;;12.55;7.20;;;;;;;-148.88;88.63;-17125.47;5034849;28;20486;-76
2023/06/29 08:34:43;;;;;;;9.93;7.15;;;;;;;-148.88;90.04;-17125.47;5016625;28;20057;-76
2023/06/29 08:37:09;;;;;;;13.75;7.50;;;;;;;-148.88;88.01;-17125.47;5034871;28;20139;-75
2023/06/29 08:39:34;;;;;;;10.15;6.55;;;;;;;-148.88;87.47;-17125.47;5034930;28;20080;-75
2023/06/29 08:41:59;;;;;;;11.63;6.60;;;;;;;-148.88;88.51;-17125.47;5034675;28;20014;-75
2023/06/29 08:44:25;;;;;;;13.02;6.40;;;;;;;-148.88;87.58;-17125.47;5034730;28;20021;-75
2023/06/29 08:46:52;;;;;;;10.02;6.78;;;;;;;-148.88;86.73;-17125.47;5034745;28;20111;-75
2023/06/29 08:49:22;;;;;;;10.40;6.57;;;;;;;-148.88;85.32;-17125.47;5034632;28;20021;-76
2023/06/29 08:51:51;;;;;;;12.15;6.78;;;;;;;-148.88;87.08;-17125.47;5034586;28;20020;-75
2023/06/29 08:54:18;;;;;;;11.38;7.25;;;;;;;-148.88;87.98;-17125.47;5034498;28;20033;-75
2023/06/29 08:56:45;;;;;;;13.38;7.28;;;;;;;-148.88;88.89;-17125.47;5034346;28;20435;-75
2023/06/29 08:59:10;;;;;;;12.95;7.38;;;;;;;-148.88;87.89;-17125.47;5034665;28;20360;-76
2023/06/29 09:01:38;;;;;;;10.50;7.50;;;;;;;-148.88;89.09;-17125.47;5034345;28;20502;-76
2023/06/29 09:04:03;;;;;;;12.77;7.22;;;;;;;-148.88;90.22;-17125.47;5034251;28;20443;-76
2023/06/29 09:06:29;;;;;;;11.60;7.10;;;;;;;-148.88;88.75;-17125.47;5016506;28;20556;-76
2023/06/29 09:08:54;;;;;;;10.73;7.35;;;;;;;-148.88;88.50;-17125.47;5034175;28;20064;-76
2023/06/29 09:11:20;;;;;;;11.48;7.82;;;;;;;-148.88;88.36;-17125.47;5034067;28;20026;-76
2023/06/29 09:13:46;;;;;;;13.32;7.70;;;;;;;-148.88;88.48;-17125.47;5034033;28;20064;-76
2023/06/29 09:16:17;;;;;;;10.95;7.22;;;;;;;-148.88;88.92;-17125.47;5016311;28;20422;-76
2023/06/29 09:18:48;;;;;;;13.90;7.45;;;;;;;-148.88;88.38;-17125.47;5033982;28;20022;-76
2023/06/29 09:21:16;;;;;;;12.80;7.13;;;;;;;-148.88;88.26;-17125.47;5034058;28;20018;-76
2023/06/29 09:23:42;;;;;;;11.82;7.57;;;;;;;-148.88;88.33;-17125.47;5033668;28;20061;-76
2023/06/29 09:26:08;;;;;;;10.35;6.88;;;;;;;-148.88;87.97;-17125.47;5033937;28;20017;-76
2023/06/29 09:28:35;;;;;;;11.55;6.97;;;;;;;-148.88;88.73;-17125.47;5033794;28;20017;-76
2023/06/29 09:31:06;;;;;;;13.48;7.50;;;;;;;-148.88;87.70;-17125.47;5033710;28;20025;-77
2023/06/29 09:33:32;;;;;;;14.68;8.30;;;;;;;-148.88;88.38;-17125.47;5033699;28;20494;-77
2023/06/29 09:36:06;;;;;;;10.55;7.35;;;;;;;-148.88;89.75;-17125.47;5033753;28;20034;-77
2023/06/29 09:38:32;;;;;;;14.13;8.18;;;;;;;-148.88;89.78;-17125.47;5015924;28;20026;-77
2023/06/29 09:40:59;;;;;;;12.68;7.57;;;;;;;-148.88;88.52;-17125.47;5033801;28;20028;-76
2023/06/29 09:43:28;;;;;;;14.38;8.10;;;;;;;-148.88;89.07;-17125.47;5033847;28;20406;-77
2023/06/29 09:46:08;;;;;;;14.07;7.80;;;;;;;-148.88;88.99;-17125.47;5032764;28;20391;-76
2023/06/29 09:48:42;;;;;;;15.20;8.30;;;;;;;-148.88;88.82;-17125.47;5015797;28;20029;-77
2023/06/29 09:51:08;;;;;;;13.40;8.00;;;;;;;-148.88;88.72;-17125.47;5033582;28;20024;-76
2023/06/29 09:53:33;;;;;;;11.15;6.82;;;;;;;-148.88;88.75;-17125.47;5015739;28;20029;-78
2023/06/29 09:56:00;;;;;;;13.15;7.80;;;;;;;-148.88;90.63;-17125.47;5015814;28;20029;-76
2023/06/29 09:58:30;;;;;;;11.90;7.53;;;;;;;-148.88;90.81;-17125.47;5033632;28;20483;-76
2023/06/29 10:00:58;;;;;;;12.43;7.85;;;;;;;-148.88;91.65;-17125.47;5033618;28;20028;-76
2023/06/29 10:03:26;;;;;;;10.20;7.03;;;;;;;-148.88;91.45;-17125.47;5033425;28;20069;-76
2023/06/29 10:05:57;;;;;;;10.93;7.20;;;;;;;-148.88;89.68;-17125.47;5033381;28;20029;-77
2023/06/29 10:08:27;;;;;;;11.13;7.90;;;;;;;-148.88;90.16;-17125.47;5033890;28;20021;-77
2023/06/29 10:10:56;;;;;;;13.48;7.50;;;;;;;-148.88;90.68;-17125.47;5015620;28;20040;-77
2023/06/29 10:13:22;;;;;;;14.52;8.35;;;;;;;-148.88;87.96;-17125.47;5015909;28;20080;-77
2023/06/29 10:15:51;;;;;;;11.50;7.35;;;;;;;-148.88;88.69;-17125.47;5033441;28;20525;-76
2023/06/29 10:18:26;;;;;;;12.23;8.10;;;;;;;-148.88;88.21;-17125.47;5033312;28;20021;-76
2023/06/29 10:20:52;;;;;;;13.43;8.02;;;;;;;-148.88;86.03;-17125.47;5033240;28;20028;-76
2023/06/29 10:23:20;;;;;;;13.80;7.72;;;;;;;-148.88;85.63;-17125.47;5033448;28;20025;-77
2023/06/29 10:25:49;;;;;;;16.35;8.02;;;;;;;-148.88;84.83;-17125.47;5033071;28;20034;-76
2023/06/29 10:28:16;;;;;;;11.68;7.93;;;;;;;-148.88;85.35;-17125.47;5015472;28;20029;-76
2023/06/29 10:30:46;;;;;;;13.32;7.95;;;;;;;-148.88;85.09;-17125.47;5033484;28;20160;-77
2023/06/29 10:33:12;;;;;;;16.90;8.70;;;;;;;-148.88;82.94;-17125.47;5033151;28;20108;-77
2023/06/29 10:35:40;;;;;;;15.32;9.02;;;;;;;-148.88;83.72;-17125.47;5015365;28;20116;-76
2023/06/29 10:38:12;;;;;;;16.20;9.63;;;;;;;-148.88;83.45;-17125.47;5033365;28;20029;-76
2023/06/29 10:40:47;;;;;;;15.15;8.93;;;;;;;-148.88;82.57;-17125.47;5015396;28;20022;-77
2023/06/29 10:43:13;;;;;;;15.52;8.93;;;;;;;-148.88;83.17;-17125.47;5015262;28;20033;-76
2023/06/29 10:45:39;;;;;;;15.88;9.90;;;;;;;-148.88;82.58;-17125.47;5015193;28;20368;-76
2023/06/29 10:48:09;;;;;;;19.27;10.52;;;;;;;-148.88;82.33;-17125.47;5032967;28;20032;-77
2023/06/29 10:50:37;;;;;;;16.80;10.15;;;;;;;-148.88;81.48;-17125.47;5015683;28;20017;-76
2023/06/29 10:53:04;;;;;;;20.63;10.63;;;;;;;-148.88;81.41;-17125.47;5032929;28;20025;-77
2023/06/29 10:55:42;;;;;;;17.02;9.10;;;;;;;-148.88;83.10;-17125.47;5032805;28;20029;-76
2023/06/29 10:58:17;;;;;;;15.57;9.40;;;;;;;-148.88;83.33;-17125.47;5036266;28;20086;-77
2023/06/29 11:00:43;;;;;;;15.70;8.85;;;;;;;-148.88;83.15;-17125.47;5018892;28;20029;-76
2023/06/29 11:03:10;;;;;;;15.80;9.38;;;;;;;-148.88;82.97;-17125.47;5036846;28;20064;-76
2023/06/29 11:05:36;;;;;;;16.08;8.75;;;;;;;-148.88;82.74;-17125.47;5037511;28;20040;-77
2023/06/29 11:08:02;;;;;;;16.38;9.05;;;;;;;-148.88;83.20;-17125.47;5036629;28;20025;-76
2023/06/29 11:10:28;;;;;;;14.98;8.77;;;;;;;-148.88;83.81;-17125.47;5036699;28;20029;-76
2023/06/29 11:12:54;;;;;;;12.75;8.30;;;;;;;-148.88;82.91;-17125.47;5019130;28;20087;-76
2023/06/29 11:15:21;;;;;;;15.60;8.77;;;;;;;-148.88;80.25;-17125.47;5036344;28;20026;-77
2023/06/29 11:17:50;;;;;;;16.67;8.85;;;;;;;-148.88;75.43;-17125.47;5036396;28;20479;-76
2023/06/29 11:20:19;;;;;;;12.40;7.75;;;;;;;-148.88;76.65;-17125.47;5018644;28;20112;-76
2023/06/29 11:22:45;;;;;;;11.13;7.18;;;;;;;-148.88;78.21;-17125.47;5036234;28;20022;-77